Hovedside
METAR-TAF:

METAR-TAF

Lufthavner :

Visby, Gotland, Sverige

Visby lufthavn

breddegrad: 57-40N, lengdegrad: 018-21E, høyde over havet: 51 m

Gjeldene værobservasjon

Denne rapporten ble laget for 1 time og 16 minutter siden, klokken 09:50 UTC
Vind 8 kt fra Vest-sørvest
Temperatur 7°C
Luftfuktighet 57%
Trykk 1010 hPa
Sikt 10 km eller mer
ingen skyer under 1500 m og ingen bygeskyer

METAR: ESSV 270950Z 25008KT CAVOK 07/M01 Q1010

Tid: 13:06 (11:06 UTC)

Varsel

Denne rapporten ble laget for 2 timer og 36 minutter siden, klokken 08:30 UTC
Varsel gyldig fra 27. klokken 09 UTC til 27. klokken 18 UTC
Vind 9 kt fra Vest
Sikt 10 km eller mer
ingen skyer under 1500 m og ingen bygeskyer

TAF: ESSV 270830Z 2709/2718 26009KT CAVOK

Værobservasjoner og værvarsel for over 4000 flyplasser (METAR- og TAF-rapporter).

Tilgjengelige stasjoner er representert av de røde og gule prikkene på kartet.

Hold musepekeren over prikken for å se navnet på stasjonen.

Klikk så for å se værobservasjoner og -varsler.

For å forandre kartet kan du klikke på den grønne knappen med svart kryss for å zoome inn, på den grønne knappen med strek for å zoome ut, eller på de grønne pilene for å se tilstøtende kart.


METAR-TAF: